Maya — JD2830 — position and weather

sailwx.info

Track history (hours):
 
Tides and Currents Weather Stations Pressure Air Temp Water Temp Dewpoint Dewpoint Depression Visibility Wind Speed Wind Dir Waves Ship Positions

Maya

Last reported at 2017-Nov-20 00:30 UTC. Time now 2017-Nov-24 03:43 UTC.
Position N 34°37' E 135°16'.

Length 90 m; draft 4 m.

Type: Cargo ship. MMSI: 431000776.

Date/timePositionNaut miles runAvg speedWind from/ knotsBaromVisibWave heightAir tempDewpointWater temp
2017-Nov-20 00:30N 34°37' E 135°16'0 0.1
2017-Nov-19 23:55N 34°37' E 135°16'0 0.0
2017-Nov-19 23:13N 34°37' E 135°16'0 0.0
2017-Nov-19 22:55N 34°37' E 135°16'0 0.0
2017-Nov-19 22:30N 34°37' E 135°16'0 0.0
2017-Nov-19 22:00N 34°37' E 135°16'0 0.0
2017-Nov-19 21:30N 34°37' E 135°16'0 0.0
2017-Nov-19 21:00N 34°37' E 135°16'0 0.0
2017-Nov-19 20:30N 34°37' E 135°16'0 0.2
2017-Nov-19 20:00N 34°37' E 135°16'5 9.0
2017-Nov-19 19:30N 34°35' E 135°11'510.6
2017-Nov-19 19:00N 34°35' E 135°05'613.1
2017-Nov-19 18:30N 34°36' E 134°57'  
2017-Nov-17 13:04N 34°37' E 134°56'212.5
2017-Nov-17 12:55N 34°37' E 134°58'512.3
2017-Nov-17 12:31N 34°36' E 135°04'612.1
2017-Nov-17 12:01N 34°37' E 135°11'3 6.7
2017-Nov-17 11:30N 34°39' E 135°15'0 0.1
2017-Nov-17 10:52N 34°39' E 135°15'0 0.0
2017-Nov-17 10:17N 34°39' E 135°15'0 0.0
2017-Nov-17 09:52N 34°39' E 135°15'0 0.0
2017-Nov-17 09:22N 34°39' E 135°15'0 0.0
2017-Nov-17 08:52N 34°39' E 135°15'0 0.0
2017-Nov-17 08:28N 34°39' E 135°15'0 0.0
2017-Nov-17 07:52N 34°39' E 135°15'0 0.0
2017-Nov-17 07:28N 34°39' E 135°15'0 0.0
2017-Nov-17 06:59N 34°39' E 135°15'2 5.1
2017-Nov-17 06:30N 34°37' E 135°15'612.8
2017-Nov-17 06:00N 34°35' E 135°07'913.6
2017-Nov-17 05:20N 34°36' E 134°56'1 0.0
2017-Nov-15 09:41N 34°37' E 134°57'313.5
2017-Nov-15 09:28N 34°38' E 135°00'612.5
2017-Nov-15 09:00N 34°36' E 135°07'611.4
2017-Nov-15 08:30N 34°37' E 135°14'2 4.4
2017-Nov-15 08:00N 34°40' E 135°14'0 0.0
2017-Nov-15 07:30N 34°40' E 135°14'0 0.0
2017-Nov-15 07:00N 34°40' E 135°14'0 0.0
2017-Nov-15 06:30N 34°40' E 135°14'0 0.0
2017-Nov-15 06:00N 34°40' E 135°14'0 0.0
2017-Nov-15 05:30N 34°40' E 135°14'0 0.7
2017-Nov-15 05:00N 34°40' E 135°15'1 2.5
2017-Nov-15 04:30N 34°39' E 135°16'4 7.4
2017-Nov-15 04:00N 34°35' E 135°14'5 9.8
2017-Nov-15 03:30N 34°35' E 135°08'612.3
2017-Nov-15 03:00N 34°37' E 135°01'12 0.2
2017-Nov-13 02:00N 34°40' E 135°15'1 1.1
2017-Nov-13 01:29N 34°39' E 135°15'0 0.0
2017-Nov-13 01:00N 34°39' E 135°15'0 0.0
2017-Nov-13 00:23N 34°39' E 135°15'0 0.0
2017-Nov-13 00:00N 34°39' E 135°15'0 0.0
2017-Nov-12 23:29N 34°39' E 135°15'0 0.2
2017-Nov-12 23:00N 34°39' E 135°15'2 4.2
2017-Nov-12 22:25N 34°41' E 135°12'0 0.0
2017-Nov-12 21:56N 34°41' E 135°12'0 0.0
2017-Nov-12 21:25N 34°41' E 135°12'0 0.0
2017-Nov-12 20:50N 34°41' E 135°12'0 0.0
2017-Nov-12 20:26N 34°41' E 135°12'0 0.0
2017-Nov-12 19:56N 34°41' E 135°12'0 0.0
2017-Nov-12 19:26N 34°41' E 135°12'0 0.0
2017-Nov-12 18:55N 34°41' E 135°12'0 0.0
2017-Nov-12 18:25N 34°41' E 135°12'0 0.0
2017-Nov-12 17:56N 34°41' E 135°12'0 0.0
2017-Nov-12 17:26N 34°41' E 135°12'0 0.0
2017-Nov-12 16:56N 34°41' E 135°12'0 0.0
2017-Nov-12 16:26N 34°41' E 135°12'0 0.0
2017-Nov-12 15:56N 34°41' E 135°12'0 0.0
2017-Nov-12 15:20N 34°41' E 135°12'0 0.0
2017-Nov-12 14:49N 34°41' E 135°12'0 0.0
2017-Nov-12 14:19N 34°41' E 135°12'0 0.0
2017-Nov-12 13:55N 34°41' E 135°12'0 0.0
2017-Nov-12 13:25N 34°41' E 135°12'0 0.0
2017-Nov-12 12:55N 34°41' E 135°12'0 0.0
2017-Nov-12 12:25N 34°41' E 135°12'0 0.0
2017-Nov-12 11:49N 34°41' E 135°12'0 0.0
2017-Nov-12 11:25N 34°41' E 135°12'0 0.0
2017-Nov-12 10:55N 34°41' E 135°12'0 0.0
2017-Nov-12 10:26N 34°41' E 135°12'0 0.0
2017-Nov-12 09:56N 34°41' E 135°12'0 0.0
2017-Nov-12 09:26N 34°41' E 135°12'0 0.0
2017-Nov-12 08:55N 34°41' E 135°12'0 0.0
2017-Nov-12 08:26N 34°41' E 135°12'0 0.0
2017-Nov-12 07:55N 34°41' E 135°12'0 0.0
2017-Nov-12 07:25N 34°41' E 135°12'0 0.0
2017-Nov-12 06:43N 34°41' E 135°12'0 0.0
2017-Nov-12 06:19N 34°41' E 135°12'0 0.0
2017-Nov-12 05:55N 34°41' E 135°12'0 0.0
2017-Nov-12 05:25N 34°41' E 135°12'0 0.0
2017-Nov-12 04:55N 34°41' E 135°12'0 0.0
2017-Nov-12 04:25N 34°41' E 135°12'0 0.0
2017-Nov-12 03:55N 34°41' E 135°12'0 0.0
2017-Nov-12 03:25N 34°41' E 135°12'0 0.0
2017-Nov-12 02:55N 34°41' E 135°12'0 0.0
2017-Nov-12 02:25N 34°41' E 135°12'0 0.0
2017-Nov-12 01:55N 34°41' E 135°12'0 0.0
2017-Nov-12 01:13N 34°41' E 135°12'0 0.0
2017-Nov-12 00:55N 34°41' E 135°12'0 0.0
2017-Nov-12 00:19N 34°41' E 135°12'0 0.0
2017-Nov-11 23:55N 34°41' E 135°12'0 0.0
2017-Nov-11 23:25N 34°41' E 135°12'0 0.0
2017-Nov-11 22:49N 34°41' E 135°12'0 0.0
2017-Nov-11 22:25N 34°41' E 135°12'0 1.0
2017-Nov-11 22:00N 34°41' E 135°13'5 9.7
2017-Nov-11 21:30N 34°36' E 135°15'612.4
2017-Nov-11 21:00N 34°34' E 135°08'613.0
2017-Nov-11 20:30N 34°37' E 135°01'712.6
2017-Nov-11 19:58N 34°34' E 134°53'2 0.0
2017-Nov-10 11:57N 34°36' E 134°53'511.4
2017-Nov-10 11:30N 34°38' E 134°58'510.3
2017-Nov-10 11:00N 34°36' E 135°04'612.1
2017-Nov-10 10:30N 34°37' E 135°12'3 6.4
2017-Nov-10 10:00N 34°39' E 135°15'0 0.0
2017-Nov-10 09:30N 34°39' E 135°15'0 0.0
2017-Nov-10 09:00N 34°39' E 135°15'0 0.0
2017-Nov-10 08:30N 34°39' E 135°15'0 0.0
2017-Nov-10 08:00N 34°39' E 135°15'0 0.0
2017-Nov-10 07:30N 34°39' E 135°15'0 0.0
2017-Nov-10 07:00N 34°39' E 135°15'0 0.0
2017-Nov-10 06:30N 34°39' E 135°15'0 0.0
2017-Nov-10 06:00N 34°39' E 135°15'2 3.6
2017-Nov-10 05:30N 34°38' E 135°16'611.8
2017-Nov-10 05:00N 34°35' E 135°10'611.6
2017-Nov-10 04:30N 34°36' E 135°03'6 9.9
2017-Nov-10 03:52N 34°35' E 134°55'  
Track history (hours):
 
Tides and Currents Weather Stations Pressure Air Temp Water Temp Dewpoint Dewpoint Depression Visibility Wind Speed Wind Dir Waves Ship Positions

Maya

Last reported at 2017-Nov-20 00:30 UTC. Time now 2017-Nov-24 03:43 UTC.
Position N 34°37' E 135°16'.

Length 90 m; draft 4 m.

Type: Cargo ship. MMSI: 431000776.

Date/timePositionNaut miles runAvg speedWind from/ knotsBaromVisibWave heightAir tempDewpointWater temp
2017-Nov-20 00:30N 34°37' E 135°16'0 0.1
2017-Nov-19 23:55N 34°37' E 135°16'0 0.0
2017-Nov-19 23:13N 34°37' E 135°16'0 0.0
2017-Nov-19 22:55N 34°37' E 135°16'0 0.0
2017-Nov-19 22:30N 34°37' E 135°16'0 0.0
2017-Nov-19 22:00N 34°37' E 135°16'0 0.0
2017-Nov-19 21:30N 34°37' E 135°16'0 0.0
2017-Nov-19 21:00N 34°37' E 135°16'0 0.0
2017-Nov-19 20:30N 34°37' E 135°16'0 0.2
2017-Nov-19 20:00N 34°37' E 135°16'5 9.0
2017-Nov-19 19:30N 34°35' E 135°11'510.6
2017-Nov-19 19:00N 34°35' E 135°05'613.1
2017-Nov-19 18:30N 34°36' E 134°57'  
2017-Nov-17 13:04N 34°37' E 134°56'212.5
2017-Nov-17 12:55N 34°37' E 134°58'512.3
2017-Nov-17 12:31N 34°36' E 135°04'612.1
2017-Nov-17 12:01N 34°37' E 135°11'3 6.7
2017-Nov-17 11:30N 34°39' E 135°15'0 0.1
2017-Nov-17 10:52N 34°39' E 135°15'0 0.0
2017-Nov-17 10:17N 34°39' E 135°15'0 0.0
2017-Nov-17 09:52N 34°39' E 135°15'0 0.0
2017-Nov-17 09:22N 34°39' E 135°15'0 0.0
2017-Nov-17 08:52N 34°39' E 135°15'0 0.0
2017-Nov-17 08:28N 34°39' E 135°15'0 0.0
2017-Nov-17 07:52N 34°39' E 135°15'0 0.0
2017-Nov-17 07:28N 34°39' E 135°15'0 0.0
2017-Nov-17 06:59N 34°39' E 135°15'2 5.1
2017-Nov-17 06:30N 34°37' E 135°15'612.8
2017-Nov-17 06:00N 34°35' E 135°07'913.6
2017-Nov-17 05:20N 34°36' E 134°56'1 0.0
2017-Nov-15 09:41N 34°37' E 134°57'313.5
2017-Nov-15 09:28N 34°38' E 135°00'612.5
2017-Nov-15 09:00N 34°36' E 135°07'611.4
2017-Nov-15 08:30N 34°37' E 135°14'2 4.4
2017-Nov-15 08:00N 34°40' E 135°14'0 0.0
2017-Nov-15 07:30N 34°40' E 135°14'0 0.0
2017-Nov-15 07:00N 34°40' E 135°14'0 0.0
2017-Nov-15 06:30N 34°40' E 135°14'0 0.0
2017-Nov-15 06:00N 34°40' E 135°14'0 0.0
2017-Nov-15 05:30N 34°40' E 135°14'0 0.7
2017-Nov-15 05:00N 34°40' E 135°15'1 2.5
2017-Nov-15 04:30N 34°39' E 135°16'4 7.4
2017-Nov-15 04:00N 34°35' E 135°14'5 9.8
2017-Nov-15 03:30N 34°35' E 135°08'612.3
2017-Nov-15 03:00N 34°37' E 135°01'12 0.2
2017-Nov-13 02:00N 34°40' E 135°15'1 1.1
2017-Nov-13 01:29N 34°39' E 135°15'0 0.0
2017-Nov-13 01:00N 34°39' E 135°15'0 0.0
2017-Nov-13 00:23N 34°39' E 135°15'0 0.0
2017-Nov-13 00:00N 34°39' E 135°15'0 0.0
2017-Nov-12 23:29N 34°39' E 135°15'0 0.2
2017-Nov-12 23:00N 34°39' E 135°15'2 4.2
2017-Nov-12 22:25N 34°41' E 135°12'0 0.0
2017-Nov-12 21:56N 34°41' E 135°12'0 0.0
2017-Nov-12 21:25N 34°41' E 135°12'0 0.0
2017-Nov-12 20:50N 34°41' E 135°12'0 0.0
2017-Nov-12 20:26N 34°41' E 135°12'0 0.0
2017-Nov-12 19:56N 34°41' E 135°12'0 0.0
2017-Nov-12 19:26N 34°41' E 135°12'0 0.0
2017-Nov-12 18:55N 34°41' E 135°12'0 0.0
2017-Nov-12 18:25N 34°41' E 135°12'0 0.0
2017-Nov-12 17:56N 34°41' E 135°12'0 0.0
2017-Nov-12 17:26N 34°41' E 135°12'0 0.0
2017-Nov-12 16:56N 34°41' E 135°12'0 0.0
2017-Nov-12 16:26N 34°41' E 135°12'0 0.0
2017-Nov-12 15:56N 34°41' E 135°12'0 0.0
2017-Nov-12 15:20N 34°41' E 135°12'0 0.0
2017-Nov-12 14:49N 34°41' E 135°12'0 0.0
2017-Nov-12 14:19N 34°41' E 135°12'0 0.0
2017-Nov-12 13:55N 34°41' E 135°12'0 0.0
2017-Nov-12 13:25N 34°41' E 135°12'0 0.0
2017-Nov-12 12:55N 34°41' E 135°12'0 0.0
2017-Nov-12 12:25N 34°41' E 135°12'0 0.0
2017-Nov-12 11:49N 34°41' E 135°12'0 0.0
2017-Nov-12 11:25N 34°41' E 135°12'0 0.0
2017-Nov-12 10:55N 34°41' E 135°12'0 0.0
2017-Nov-12 10:26N 34°41' E 135°12'0 0.0
2017-Nov-12 09:56N 34°41' E 135°12'0 0.0
2017-Nov-12 09:26N 34°41' E 135°12'0 0.0
2017-Nov-12 08:55N 34°41' E 135°12'0 0.0
2017-Nov-12 08:26N 34°41' E 135°12'0 0.0
2017-Nov-12 07:55N 34°41' E 135°12'0 0.0
2017-Nov-12 07:25N 34°41' E 135°12'0 0.0
2017-Nov-12 06:43N 34°41' E 135°12'0 0.0
2017-Nov-12 06:19N 34°41' E 135°12'0 0.0
2017-Nov-12 05:55N 34°41' E 135°12'0 0.0
2017-Nov-12 05:25N 34°41' E 135°12'0 0.0
2017-Nov-12 04:55N 34°41' E 135°12'0 0.0
2017-Nov-12 04:25N 34°41' E 135°12'0 0.0
2017-Nov-12 03:55N 34°41' E 135°12'0 0.0
2017-Nov-12 03:25N 34°41' E 135°12'0 0.0
2017-Nov-12 02:55N 34°41' E 135°12'0 0.0
2017-Nov-12 02:25N 34°41' E 135°12'0 0.0
2017-Nov-12 01:55N 34°41' E 135°12'0 0.0
2017-Nov-12 01:13N 34°41' E 135°12'0 0.0
2017-Nov-12 00:55N 34°41' E 135°12'0 0.0
2017-Nov-12 00:19N 34°41' E 135°12'0 0.0
2017-Nov-11 23:55N 34°41' E 135°12'0 0.0
2017-Nov-11 23:25N 34°41' E 135°12'0 0.0
2017-Nov-11 22:49N 34°41' E 135°12'0 0.0
2017-Nov-11 22:25N 34°41' E 135°12'0 1.0
2017-Nov-11 22:00N 34°41' E 135°13'5 9.7
2017-Nov-11 21:30N 34°36' E 135°15'612.4
2017-Nov-11 21:00N 34°34' E 135°08'613.0
2017-Nov-11 20:30N 34°37' E 135°01'712.6
2017-Nov-11 19:58N 34°34' E 134°53'2 0.0
2017-Nov-10 11:57N 34°36' E 134°53'511.4
2017-Nov-10 11:30N 34°38' E 134°58'510.3
2017-Nov-10 11:00N 34°36' E 135°04'612.1
2017-Nov-10 10:30N 34°37' E 135°12'3 6.4
2017-Nov-10 10:00N 34°39' E 135°15'0 0.0
2017-Nov-10 09:30N 34°39' E 135°15'0 0.0
2017-Nov-10 09:00N 34°39' E 135°15'0 0.0
2017-Nov-10 08:30N 34°39' E 135°15'0 0.0
2017-Nov-10 08:00N 34°39' E 135°15'0 0.0
2017-Nov-10 07:30N 34°39' E 135°15'0 0.0
2017-Nov-10 07:00N 34°39' E 135°15'0 0.0
2017-Nov-10 06:30N 34°39' E 135°15'0 0.0
2017-Nov-10 06:00N 34°39' E 135°15'2 3.6
2017-Nov-10 05:30N 34°38' E 135°16'611.8
2017-Nov-10 05:00N 34°35' E 135°10'611.6
2017-Nov-10 04:30N 34°36' E 135°03'6 9.9
2017-Nov-10 03:52N 34°35' E 134°55'  

Dump ship's entire track history